Time;durP1;ratioP1;P1;durP2;ratioP2;P2;SDS_P1;SDS_P2;PMS_P1;PMS_P2;Temp;Humidity;BMP_temperature;BMP_pressure;BME280_temperature;BME280_humidity;BME280_pressure;Samples;Min_cycle;Max_cycle;Signal;HPM_P1;HPM_P2
2021/03/29 00:01:19;;;;;;;19.57;10.73;;;2.00;99.90;;;;;;4156886;28;20353;-63
2021/03/29 00:03:21;;;;;;;17.30;9.93;;;1.90;99.90;;;;;;4157876;28;20836;-63
2021/03/29 00:05:24;;;;;;;19.47;10.33;;;2.00;99.90;;;;;;4156955;28;20332;-64
2021/03/29 00:07:26;;;;;;;19.97;10.83;;;1.90;99.90;;;;;;4154802;28;20271;-63
2021/03/29 00:09:31;;;;;;;22.30;10.90;;;1.90;99.90;;;;;;4140490;28;20309;-65
2021/03/29 00:11:34;;;;;;;19.93;11.00;;;1.80;99.90;;;;;;4141721;28;20275;-63
2021/03/29 00:13:36;;;;;;;21.03;11.07;;;1.80;99.90;;;;;;4141155;28;20263;-63
2021/03/29 00:15:41;;;;;;;24.73;10.20;;;1.80;99.90;;;;;;4141288;28;20267;-66
2021/03/29 00:17:42;;;;;;;21.60;10.70;;;1.70;99.90;;;;;;4141535;28;20279;-64
2021/03/29 00:19:44;;;;;;;20.60;10.47;;;1.70;99.90;;;;;;4140524;28;20279;-68
2021/03/29 00:21:46;;;;;;;20.63;9.73;;;1.60;99.90;;;;;;4141046;28;20314;-65
2021/03/29 00:23:47;;;;;;;19.33;10.17;;;1.60;99.90;;;;;;4140698;28;20267;-63
2021/03/29 00:25:49;;;;;;;17.97;10.07;;;1.60;99.90;;;;;;4141627;28;20337;-67
2021/03/29 00:27:50;;;;;;;19.20;9.70;;;1.60;99.90;;;;;;4140431;28;20301;-64
2021/03/29 00:29:51;;;;;;;16.97;9.67;;;1.60;99.90;;;;;;4141538;28;20751;-63
2021/03/29 00:31:53;;;;;;;16.53;9.57;;;1.60;99.90;;;;;;4140096;28;20326;-62
2021/03/29 00:33:55;;;;;;;21.40;10.60;;;1.50;99.90;;;;;;4141904;28;20302;-62
2021/03/29 00:35:57;;;;;;;19.77;9.40;;;1.50;99.90;;;;;;4140589;28;21065;-63
2021/03/29 00:38:00;;;;;;;19.13;9.50;;;1.50;99.90;;;;;;4142370;28;20321;-65
2021/03/29 00:40:03;;;;;;;16.23;8.30;;;1.50;99.90;;;;;;4139189;28;20828;-62
2021/03/29 00:42:05;;;;;;;16.97;8.77;;;1.50;99.90;;;;;;4141591;28;20263;-63
2021/03/29 00:44:07;;;;;;;16.30;8.40;;;1.50;99.90;;;;;;4140945;28;20353;-64
2021/03/29 00:46:10;;;;;;;14.97;7.87;;;1.50;99.90;;;;;;4141215;28;20271;-63
2021/03/29 00:48:13;;;;;;;17.53;8.73;;;1.50;99.90;;;;;;4140307;28;20310;-63
2021/03/29 00:50:34;;;;;;;13.47;8.13;;;1.50;99.90;;;;;;4140630;28;20267;-63
2021/03/29 00:52:38;;;;;;;16.13;8.05;;;1.50;99.90;;;;;;4141383;28;20342;-63
2021/03/29 00:54:40;;;;;;;14.90;8.40;;;1.50;99.90;;;;;;4140853;28;20084;-63
2021/03/29 00:56:42;;;;;;;15.83;8.43;;;1.50;99.90;;;;;;4140494;28;20369;-61
2021/03/29 00:58:45;;;;;;;19.43;9.03;;;1.50;99.90;;;;;;4140635;28;20283;-63
2021/03/29 01:00:59;;;;;;;14.77;8.07;;;1.50;99.90;;;;;;4155269;28;20730;-63
2021/03/29 01:03:00;;;;;;;13.63;7.50;;;1.50;99.90;;;;;;4156676;28;20356;-64
2021/03/29 01:05:07;;;;;;;14.17;6.93;;;1.50;99.90;;;;;;4156963;28;20329;-63
2021/03/29 01:07:08;;;;;;;15.40;7.40;;;1.50;99.90;;;;;;4156135;28;20263;-63
2021/03/29 01:09:35;;;;;;;12.23;7.00;;;1.50;99.90;;;;;;4157225;28;20341;-63
2021/03/29 01:11:43;;;;;;;12.33;6.90;;;1.50;99.90;;;;;;4156229;28;20290;-62
2021/03/29 01:13:53;;;;;;;13.53;6.67;;;1.50;99.90;;;;;;4157140;28;20317;-65
2021/03/29 01:15:58;;;;;;;15.47;8.10;;;1.50;99.90;;;;;;4156245;28;20340;-64
2021/03/29 01:18:01;;;;;;;17.20;9.37;;;1.50;99.90;;;;;;4155669;28;21127;-65
2021/03/29 01:20:03;;;;;;;20.03;10.73;;;1.40;99.90;;;;;;4156215;28;20329;-63
2021/03/29 01:22:06;;;;;;;18.77;9.37;;;1.40;99.90;;;;;;4157708;28;20278;-61
2021/03/29 01:24:19;;;;;;;12.37;7.10;;;1.30;99.90;;;;;;4155981;28;20263;-64
2021/03/29 01:26:32;;;;;;;17.20;9.37;;;1.30;99.90;;;;;;4157245;28;20263;-63
2021/03/29 01:28:35;;;;;;;18.67;8.77;;;1.30;99.90;;;;;;4149685;28;20268;-63
2021/03/29 01:30:38;;;;;;;19.27;9.50;;;1.30;99.90;;;;;;4141282;28;20318;-63
2021/03/29 01:32:41;;;;;;;19.57;9.93;;;1.20;99.90;;;;;;4139780;28;20326;-63
2021/03/29 01:34:43;;;;;;;22.47;10.33;;;1.20;99.90;;;;;;4139800;28;20275;-63
2021/03/29 01:36:45;;;;;;;20.27;10.43;;;1.20;99.90;;;;;;4140196;28;20275;-63
2021/03/29 01:38:48;;;;;;;24.07;11.83;;;1.10;99.90;;;;;;4154067;28;20321;-63
2021/03/29 01:40:51;;;;;;;28.73;12.77;;;1.10;99.90;;;;;;4155844;28;20277;-64
2021/03/29 01:42:54;;;;;;;24.40;11.33;;;1.00;99.90;;;;;;4157328;28;20345;-63
2021/03/29 01:44:56;;;;;;;24.33;11.37;;;1.00;99.90;;;;;;4156644;28;20805;-63
2021/03/29 01:46:57;;;;;;;25.17;11.73;;;1.00;99.90;;;;;;4157135;28;21085;-65
2021/03/29 01:49:00;;;;;;;26.43;12.20;;;1.00;99.90;;;;;;4155423;28;20341;-63
2021/03/29 01:51:01;;;;;;;22.90;11.47;;;0.90;99.90;;;;;;4155843;28;20337;-64
2021/03/29 01:53:05;;;;;;;28.30;11.27;;;0.90;99.90;;;;;;4159791;28;20251;-63
2021/03/29 01:55:08;;;;;;;25.53;11.27;;;0.80;99.90;;;;;;4159319;28;20258;-63
2021/03/29 01:57:09;;;;;;;25.43;11.57;;;0.80;99.90;;;;;;4159372;28;20247;-63
2021/03/29 01:59:11;;;;;;;21.47;10.73;;;0.80;99.90;;;;;;4159846;28;20267;-64
2021/03/29 02:01:12;;;;;;;22.60;10.90;;;0.80;99.90;;;;;;4150050;28;21375;-64
2021/03/29 02:03:14;;;;;;;23.03;11.33;;;0.80;99.90;;;;;;4142619;28;20299;-63
2021/03/29 02:05:17;;;;;;;28.63;13.37;;;0.80;99.90;;;;;;4143490;28;20762;-67
2021/03/29 02:07:20;;;;;;;24.73;12.90;;;0.70;99.90;;;;;;4142260;28;20283;-63
2021/03/29 02:09:22;;;;;;;22.73;12.87;;;0.60;99.90;;;;;;4143461;28;20275;-63
2021/03/29 02:11:24;;;;;;;24.83;12.93;;;0.60;99.90;;;;;;4142357;28;20767;-64
2021/03/29 02:13:32;;;;;;;24.13;12.73;;;0.60;99.90;;;;;;4143800;28;20251;-63
2021/03/29 02:15:34;;;;;;;26.57;10.60;;;0.50;99.90;;;;;;4142742;28;20263;-63
2021/03/29 02:17:37;;;;;;;22.57;11.00;;;0.50;99.90;;;;;;4143383;28;20303;-63
2021/03/29 02:19:38;;;;;;;24.53;12.13;;;0.40;99.90;;;;;;4142251;28;20279;-65
2021/03/29 02:21:41;;;;;;;20.60;10.40;;;0.40;99.90;;;;;;4146277;28;20348;-65
2021/03/29 02:23:48;;;;;;;20.80;9.87;;;0.40;99.90;;;;;;4158487;28;20295;-64
2021/03/29 02:25:50;;;;;;;21.33;10.37;;;0.40;99.90;;;;;;4159458;28;20267;-66
2021/03/29 02:27:52;;;;;;;23.17;10.53;;;0.30;99.90;;;;;;4158252;28;20259;-64
2021/03/29 02:29:53;;;;;;;25.23;11.93;;;0.30;99.90;;;;;;4159325;28;20285;-64
2021/03/29 02:31:56;;;;;;;24.93;11.47;;;0.30;99.90;;;;;;4158679;28;20262;-63
2021/03/29 02:34:00;;;;;;;22.63;10.87;;;0.30;99.90;;;;;;4158572;28;20274;-64
2021/03/29 02:36:02;;;;;;;21.33;10.10;;;0.30;99.90;;;;;;4158909;28;20247;-65
2021/03/29 02:38:11;;;;;;;18.43;9.73;;;0.30;99.90;;;;;;4158755;28;20596;-63
2021/03/29 02:40:14;;;;;;;18.23;9.37;;;0.30;99.90;;;;;;4158538;28;20271;-63
2021/03/29 02:42:15;;;;;;;23.90;10.90;;;0.30;99.90;;;;;;4158547;28;20746;-63
2021/03/29 02:44:17;;;;;;;19.73;10.37;;;0.30;99.90;;;;;;4157899;28;20336;-64
2021/03/29 02:46:24;;;;;;;20.33;10.23;;;0.20;99.90;;;;;;4152462;28;20276;-64
2021/03/29 02:48:28;;;;;;;22.93;10.23;;;0.20;99.90;;;;;;4142992;28;21001;-63
2021/03/29 02:50:33;;;;;;;20.30;10.50;;;0.20;99.90;;;;;;4141541;28;20317;-64
2021/03/29 02:52:35;;;;;;;20.40;9.77;;;0.10;99.90;;;;;;4143161;28;20259;-65
2021/03/29 02:54:37;;;;;;;17.87;9.53;;;0.10;99.90;;;;;;4141214;28;20295;-63
2021/03/29 02:56:44;;;;;;;26.60;10.13;;;0.10;99.90;;;;;;4142723;28;20283;-63
2021/03/29 02:58:50;;;;;;;18.50;10.97;;;0.00;99.90;;;;;;4140788;28;21191;-65
2021/03/29 03:00:53;;;;;;;21.50;10.43;;;0.10;99.90;;;;;;4142389;28;20321;-64
2021/03/29 03:02:57;;;;;;;17.33;10.20;;;0.00;99.90;;;;;;4139248;28;20365;-64
2021/03/29 03:05:00;;;;;;;19.73;10.77;;;0.00;99.90;;;;;;4154878;28;20360;-64
2021/03/29 03:07:01;;;;;;;19.70;10.00;;;0.00;99.90;;;;;;4157291;28;20368;-64
2021/03/29 03:09:07;;;;;;;22.47;10.47;;;0.00;99.90;;;;;;4158029;28;20759;-65
2021/03/29 03:11:12;;;;;;;25.03;11.33;;;-0.10;99.90;;;;;;4157752;28;20270;-64
2021/03/29 03:13:14;;;;;;;21.53;11.43;;;-0.20;99.90;;;;;;4157288;28;20662;-64
2021/03/29 03:15:27;;;;;;;29.13;11.87;;;-0.20;99.90;;;;;;4158312;28;20356;-65
2021/03/29 03:17:28;;;;;;;27.47;11.73;;;-0.30;99.90;;;;;;4158115;28;20271;-63
2021/03/29 03:19:29;;;;;;;23.87;11.50;;;-0.30;99.90;;;;;;4157982;28;20322;-64
2021/03/29 03:21:33;;;;;;;29.67;12.40;;;-0.40;99.90;;;;;;4158049;28;20270;-64
2021/03/29 03:23:35;;;;;;;24.27;11.60;;;-0.40;99.90;;;;;;4158095;28;20291;-63
2021/03/29 03:25:46;;;;;;;28.10;11.97;;;-0.40;99.90;;;;;;4155817;28;20330;-66
2021/03/29 03:27:47;;;;;;;25.03;11.90;;;-0.50;99.90;;;;;;4148103;28;20341;-64
2021/03/29 03:29:48;;;;;;;27.90;11.53;;;-0.40;99.90;;;;;;4141145;28;20648;-63
2021/03/29 03:31:49;;;;;;;30.87;12.50;;;-0.40;99.90;;;;;;4142035;28;20596;-64
2021/03/29 03:33:52;;;;;;;23.23;11.27;;;-0.40;99.90;;;;;;4140632;28;20345;-62
2021/03/29 03:35:54;;;;;;;25.40;11.77;;;-0.40;99.90;;;;;;4141933;28;20349;-65
2021/03/29 03:38:01;;;;;;;27.37;13.23;;;-0.40;99.90;;;;;;4140513;28;20321;-63
2021/03/29 03:40:04;;;;;;;27.47;12.50;;;-0.40;99.90;;;;;;4141912;28;20263;-62
2021/03/29 03:42:06;;;;;;;28.43;12.20;;;-0.40;99.90;;;;;;4140528;28;20314;-66
2021/03/29 03:44:08;;;;;;;25.07;12.50;;;-0.30;99.90;;;;;;4141962;28;20774;-66
2021/03/29 03:46:16;;;;;;;24.60;12.53;;;-0.40;99.90;;;;;;4140654;28;20271;-68
2021/03/29 03:48:21;;;;;;;33.37;12.83;;;-0.40;99.90;;;;;;4141757;28;21117;-65
2021/03/29 03:50:23;;;;;;;27.97;11.70;;;-0.50;99.90;;;;;;4140655;28;20667;-67
2021/03/29 03:52:24;;;;;;;32.87;12.40;;;-0.50;99.90;;;;;;4142001;28;20271;-67
2021/03/29 03:54:27;;;;;;;22.87;11.73;;;-0.50;99.90;;;;;;4140442;28;20650;-63
2021/03/29 03:56:33;;;;;;;25.57;11.87;;;-0.50;99.90;;;;;;4140128;28;20263;-67
2021/03/29 03:58:36;;;;;;;30.93;13.27;;;-0.50;99.90;;;;;;4147812;28;20279;-68
2021/03/29 04:00:37;;;;;;;28.10;12.73;;;-0.50;99.90;;;;;;4150922;28;20357;-68
2021/03/29 04:02:39;;;;;;;32.00;13.13;;;-0.60;99.90;;;;;;4140848;28;20276;-68
2021/03/29 04:04:41;;;;;;;32.77;14.27;;;-0.60;99.90;;;;;;4140806;28;20609;-64
2021/03/29 04:06:42;;;;;;;30.90;13.17;;;-0.60;99.90;;;;;;4141108;28;20720;-65
2021/03/29 04:08:44;;;;;;;30.43;13.63;;;-0.60;99.90;;;;;;4140325;28;20639;-63
2021/03/29 04:10:49;;;;;;;38.67;13.90;;;-0.60;99.90;;;;;;4141074;28;20279;-67
2021/03/29 04:12:54;;;;;;;29.43;13.77;;;-0.60;99.90;;;;;;4141059;28;20275;-62
2021/03/29 04:14:55;;;;;;;39.03;13.33;;;-0.60;99.90;;;;;;4141612;28;20317;-63
2021/03/29 04:16:56;;;;;;;35.67;12.70;;;-0.60;99.90;;;;;;4139657;28;20322;-63
2021/03/29 04:18:57;;;;;;;28.20;13.20;;;-0.60;99.90;;;;;;4141351;28;20875;-63
2021/03/29 04:20:59;;;;;;;28.77;12.30;;;-0.60;99.90;;;;;;4139908;28;20318;-62
2021/03/29 04:23:01;;;;;;;29.17;12.47;;;-0.50;99.90;;;;;;4141230;28;20314;-62
2021/03/29 04:25:07;;;;;;;23.87;12.43;;;-0.50;99.90;;;;;;4140857;28;20314;-62
2021/03/29 04:27:08;;;;;;;25.53;12.07;;;-0.50;99.90;;;;;;4141138;28;21042;-64
2021/03/29 04:29:09;;;;;;;30.13;11.43;;;-0.40;99.90;;;;;;4140158;28;20410;-64
2021/03/29 04:31:11;;;;;;;22.47;11.43;;;-0.30;99.90;;;;;;4157123;28;20298;-64
2021/03/29 04:33:13;;;;;;;30.33;11.57;;;0.00;99.90;;;;;;4156525;28;20826;-64
2021/03/29 04:35:16;;;;;;;20.73;10.67;;;0.30;99.90;;;;;;4156174;28;20258;-64
2021/03/29 04:37:17;;;;;;;28.43;10.23;;;0.60;99.90;;;;;;4156421;28;20267;-64
2021/03/29 04:39:18;;;;;;;23.37;10.53;;;1.00;99.90;;;;;;4156063;28;20309;-64
2021/03/29 04:41:19;;;;;;;31.93;13.07;;;1.30;99.90;;;;;;4157009;28;20304;-63
2021/03/29 04:43:20;;;;;;;37.53;13.17;;;1.70;99.90;;;;;;4155804;28;20302;-64
2021/03/29 04:45:22;;;;;;;28.27;12.80;;;2.00;99.90;;;;;;4157472;28;20274;-64
2021/03/29 04:47:23;;;;;;;32.93;13.23;;;2.40;99.90;;;;;;4151182;28;21136;-66
2021/03/29 04:49:25;;;;;;;33.83;13.57;;;2.80;99.90;;;;;;4140614;28;20337;-64
2021/03/29 04:51:26;;;;;;;34.77;14.30;;;3.10;99.90;;;;;;4139289;28;20271;-66
2021/03/29 04:53:27;;;;;;;34.00;14.60;;;3.60;99.90;;;;;;4140596;28;20291;-62
2021/03/29 04:55:28;;;;;;;39.20;13.07;;;4.00;99.90;;;;;;4140840;28;20299;-63
2021/03/29 04:57:29;;;;;;;36.50;14.63;;;4.40;99.90;;;;;;4140518;28;20357;-65
2021/03/29 04:59:31;;;;;;;28.80;12.33;;;4.70;99.90;;;;;;4141991;28;20329;-66
2021/03/29 05:01:32;;;;;;;25.90;12.67;;;5.10;99.90;;;;;;4150200;28;20279;-65
2021/03/29 05:03:33;;;;;;;32.60;13.70;;;5.40;99.90;;;;;;4139366;28;20418;-66
2021/03/29 05:05:34;;;;;;;32.07;14.17;;;5.90;99.90;;;;;;4140154;28;20263;-68
2021/03/29 05:07:35;;;;;;;32.83;15.43;;;6.20;99.90;;;;;;4140557;28;20353;-67
2021/03/29 05:09:37;;;;;;;35.73;15.17;;;6.80;99.90;;;;;;4139572;28;20291;-65
2021/03/29 05:11:54;;;;;;;36.30;13.00;;;7.20;99.90;;;;;;4140630;28;20271;-65
2021/03/29 05:13:55;;;;;;;27.10;14.37;;;7.30;99.80;;;;;;4139933;28;20306;-65
2021/03/29 05:15:56;;;;;;;36.10;12.97;;;7.60;99.90;;;;;;4140480;28;20671;-67
2021/03/29 05:17:57;;;;;;;31.40;13.57;;;7.90;98.60;;;;;;4139231;28;20033;-65
2021/03/29 05:19:59;;;;;;;35.67;14.43;;;8.30;98.00;;;;;;4140447;28;20034;-65
2021/03/29 05:22:01;;;;;;;33.00;14.70;;;8.80;97.00;;;;;;4139253;28;20569;-65
2021/03/29 05:24:03;;;;;;;29.30;12.00;;;9.30;95.30;;;;;;4140492;28;20049;-68
2021/03/29 05:26:04;;;;;;;37.90;14.87;;;9.60;93.60;;;;;;4138783;28;20037;-65
2021/03/29 05:28:05;;;;;;;33.30;13.47;;;10.00;92.00;;;;;;4143661;28;20029;-66
2021/03/29 05:30:07;;;;;;;28.13;11.90;;;10.30;91.10;;;;;;4141243;28;20256;-64
2021/03/29 05:32:23;;;;;;;29.17;13.70;;;10.70;90.00;;;;;;4143737;28;20045;-64
2021/03/29 05:34:25;;;;;;;24.50;13.37;;;11.20;84.60;;;;;;4142372;28;20092;-64
2021/03/29 05:36:26;;;;;;;28.27;12.43;;;11.40;84.80;;;;;;4143044;28;20088;-65
2021/03/29 05:38:27;;;;;;;24.43;9.97;;;11.60;81.20;;;;;;4142351;28;20026;-64
2021/03/29 05:40:29;;;;;;;36.50;13.30;;;11.40;78.80;;;;;;4143151;28;20104;-65
2021/03/29 05:42:32;;;;;;;24.87;12.10;;;11.60;78.70;;;;;;4142040;28;20091;-65
2021/03/29 05:44:35;;;;;;;26.13;12.47;;;11.90;78.20;;;;;;4142653;28;20493;-65
2021/03/29 05:46:40;;;;;;;29.30;13.10;;;12.00;76.90;;;;;;4142873;28;20050;-65
2021/03/29 05:48:41;;;;;;;31.77;11.77;;;12.30;75.70;;;;;;4142382;28;20038;-65
2021/03/29 05:50:43;;;;;;;25.37;11.23;;;12.40;73.10;;;;;;4142755;28;20555;-67
2021/03/29 05:52:44;;;;;;;17.93;8.10;;;12.60;72.50;;;;;;4142125;28;20089;-65
2021/03/29 05:54:46;;;;;;;21.40;10.50;;;12.80;70.70;;;;;;4143813;28;20030;-65
2021/03/29 05:56:49;;;;;;;29.27;12.30;;;12.70;70.50;;;;;;4152528;28;20046;-63
2021/03/29 06:01:18;;;;;;;26.20;14.90;;;12.90;68.70;;;;;;4155732;28;20461;-68
2021/03/29 06:03:24;;;;;;;16.13;8.03;;;13.10;67.30;;;;;;4157628;28;20038;-65
2021/03/29 06:05:43;;;;;;;15.77;7.37;;;13.40;65.00;;;;;;4158063;28;20485;-65
2021/03/29 06:07:57;;;;;;;13.40;6.70;;;13.60;62.90;;;;;;4157619;28;20034;-65
2021/03/29 06:10:09;;;;;;;13.40;6.30;;;13.80;62.50;;;;;;4158227;28;20049;-65
2021/03/29 06:12:12;;;;;;;22.07;6.07;;;14.00;61.90;;;;;;4159300;28;20448;-64
2021/03/29 06:14:15;;;;;;;22.60;9.93;;;14.10;61.90;;;;;;4144438;28;20034;-73
2021/03/29 06:16:16;;;;;;;24.23;8.43;;;13.90;61.20;;;;;;4143971;28;20069;-66
2021/03/29 06:18:17;;;;;;;16.60;6.60;;;14.30;61.00;;;;;;4149346;28;20072;-63
2021/03/29 06:20:19;;;;;;;20.60;6.10;;;14.40;60.20;;;;;;4159261;28;20093;-67
2021/03/29 06:22:27;;;;;;;13.73;6.60;;;14.60;59.20;;;;;;4152106;28;20111;-65
2021/03/29 06:24:28;;;;;;;14.00;5.93;;;14.40;59.10;;;;;;4166741;28;20045;-63
2021/03/29 06:26:30;;;;;;;23.00;8.03;;;14.30;58.90;;;;;;4158134;28;20072;-66
2021/03/29 06:28:31;;;;;;;20.40;9.00;;;14.50;58.80;;;;;;4158349;28;20041;-64
2021/03/29 06:30:37;;;;;;;15.63;7.10;;;14.30;58.50;;;;;;4157849;28;20113;-63
2021/03/29 06:32:50;;;;;;;20.23;7.37;;;14.30;58.00;;;;;;4142889;28;20157;-65
2021/03/29 06:34:52;;;;;;;21.17;8.20;;;14.20;58.30;;;;;;4141790;28;20096;-64
2021/03/29 06:36:53;;;;;;;15.53;7.27;;;14.20;58.10;;;;;;4142873;28;20046;-64
2021/03/29 06:39:08;;;;;;;11.93;6.40;;;14.00;57.70;;;;;;4142377;28;20084;-64
2021/03/29 06:41:09;;;;;;;18.33;8.17;;;13.90;57.80;;;;;;4144409;28;20041;-64
2021/03/29 06:43:31;;;;;;;14.90;8.00;;;14.40;57.50;;;;;;4147008;28;20131;-64
2021/03/29 06:45:36;;;;;;;21.87;9.00;;;14.40;55.40;;;;;;4157788;28;20050;-67
2021/03/29 06:47:37;;;;;;;25.83;10.40;;;14.40;56.60;;;;;;4149149;28;20045;-68
2021/03/29 06:49:44;;;;;;;18.93;8.30;;;14.40;56.80;;;;;;4158535;28;20508;-66
2021/03/29 06:51:45;;;;;;;19.70;8.70;;;14.10;56.40;;;;;;4143760;28;20114;-65
2021/03/29 06:53:51;;;;;;;19.27;7.57;;;13.80;57.10;;;;;;4142579;28;20030;-66
2021/03/29 06:55:56;;;;;;;22.43;7.07;;;13.50;57.20;;;;;;4146684;28;20447;-66
2021/03/29 06:58:10;;;;;;;42.43;11.30;;;13.50;57.70;;;;;;4156851;28;20033;-69
2021/03/29 07:00:15;;;;;;;17.97;9.13;;;13.30;57.00;;;;;;4141609;28;20076;-69
2021/03/29 07:02:34;;;;;;;17.50;6.63;;;13.40;57.80;;;;;;4142099;28;20034;-71
2021/03/29 07:04:37;;;;;;;14.97;6.80;;;13.40;57.50;;;;;;4142078;28;20054;-69
2021/03/29 07:06:41;;;;;;;11.93;7.53;;;13.50;58.00;;;;;;4158413;28;20025;-68
2021/03/29 07:08:44;;;;;;;17.27;9.33;;;13.60;57.40;;;;;;4157800;28;20076;-68
2021/03/29 07:10:46;;;;;;;15.43;7.70;;;13.70;57.10;;;;;;4157719;28;20041;-70
2021/03/29 07:12:49;;;;;;;13.33;5.30;;;13.60;57.30;;;;;;4157565;28;20091;-63
2021/03/29 07:14:52;;;;;;;12.60;4.53;;;13.70;57.30;;;;;;4147320;28;20034;-63
2021/03/29 07:16:54;;;;;;;10.23;5.60;;;13.50;57.50;;;;;;4142027;28;20386;-66
2021/03/29 07:19:02;;;;;;;18.83;6.13;;;13.50;57.00;;;;;;4155334;28;20029;-63
2021/03/29 07:21:07;;;;;;;20.97;5.30;;;13.60;57.00;;;;;;4153829;28;20029;-65
2021/03/29 07:23:08;;;;;;;31.80;6.43;;;13.90;56.70;;;;;;4140833;28;20018;-69
2021/03/29 07:25:12;;;;;;;18.43;5.37;;;14.10;56.10;;;;;;4142368;28;20092;-64
2021/03/29 07:27:15;;;;;;;8.57;4.63;;;14.30;55.90;;;;;;4146459;28;20045;-64
2021/03/29 07:29:33;;;;;;;9.50;4.60;;;14.60;55.50;;;;;;4158844;28;20026;-64
2021/03/29 07:31:40;;;;;;;10.97;5.00;;;15.10;53.70;;;;;;4145892;28;20053;-63
2021/03/29 07:33:50;;;;;;;15.40;5.20;;;15.30;54.20;;;;;;4157411;28;20099;-71
2021/03/29 07:35:56;;;;;;;8.05;4.68;;;15.10;53.80;;;;;;4140536;28;20038;-63
2021/03/29 07:37:58;;;;;;;17.97;5.83;;;14.90;53.90;;;;;;4149855;28;20099;-67
2021/03/29 07:40:01;;;;;;;11.90;5.23;;;15.10;54.60;;;;;;4155074;28;20135;-64
2021/03/29 07:42:24;;;;;;;10.73;4.50;;;15.20;54.00;;;;;;4153414;28;20030;-64
2021/03/29 07:44:25;;;;;;;5.93;4.13;;;15.10;51.50;;;;;;4156723;28;20041;-62
2021/03/29 07:46:38;;;;;;;6.33;3.33;;;14.50;53.40;;;;;;4158611;28;20041;-64
2021/03/29 07:48:44;;;;;;;10.23;4.60;;;14.10;53.60;;;;;;4156172;28;20091;-64
2021/03/29 07:50:48;;;;;;;6.77;3.20;;;14.20;54.40;;;;;;4142790;28;20107;-64
2021/03/29 07:52:52;;;;;;;12.10;2.90;;;14.60;54.10;;;;;;4156822;28;20075;-64
2021/03/29 07:54:55;;;;;;;5.83;3.73;;;14.80;53.30;;;;;;4152760;28;20030;-64
2021/03/29 07:56:58;;;;;;;10.60;4.33;;;14.90;53.60;;;;;;4156046;28;20034;-63
2021/03/29 07:58:59;;;;;;;8.40;5.50;;;15.00;52.90;;;;;;4155972;28;20083;-68
2021/03/29 08:01:00;;;;;;;11.10;5.23;;;15.20;52.20;;;;;;4140564;28;20427;-65
2021/03/29 08:03:21;;;;;;;6.10;2.70;;;15.10;51.50;;;;;;4151378;28;20083;-65
2021/03/29 08:05:42;;;;;;;4.70;2.43;;;15.00;49.60;;;;;;4155336;28;20088;-65
2021/03/29 08:07:45;;;;;;;;;;;14.70;50.00;;;;;;4158271;28;20033;-65
2021/03/29 08:09:46;;;;;;;3.37;2.20;;;14.60;48.60;;;;;;4155718;28;20022;-65
2021/03/29 08:12:02;;;;;;;7.53;3.87;;;14.30;51.90;;;;;;4157002;28;20072;-65
2021/03/29 08:14:40;;;;;;;9.60;3.93;;;14.30;51.00;;;;;;4142807;28;20041;-66
2021/03/29 08:16:41;;;;;;;7.63;2.87;;;14.20;50.40;;;;;;4141852;28;20088;-63
2021/03/29 08:19:09;;;;;;;11.40;5.30;;;13.90;51.60;;;;;;4139904;28;20100;-68
2021/03/29 08:21:48;;;;;;;13.70;7.27;;;13.60;51.50;;;;;;4147962;28;20440;-66
2021/03/29 08:23:49;;;;;;;13.90;6.37;;;13.50;51.90;;;;;;4156716;28;20501;-64
2021/03/29 08:26:13;;;;;;;12.33;3.97;;;13.70;53.00;;;;;;4145469;28;20076;-67
2021/03/29 08:28:14;;;;;;;4.57;2.60;;;14.00;51.60;;;;;;4140302;28;20030;-63
2021/03/29 08:30:16;;;;;;;6.30;2.77;;;13.90;51.60;;;;;;4141864;28;20395;-64
2021/03/29 08:32:17;;;;;;;9.07;3.40;;;13.70;52.10;;;;;;4141287;28;21002;-64
2021/03/29 08:34:19;;;;;;;5.87;3.30;;;13.10;52.00;;;;;;4141074;28;20654;-65
2021/03/29 08:36:20;;;;;;;10.73;4.23;;;12.70;52.90;;;;;;4154322;28;20103;-64
2021/03/29 08:38:23;;;;;;;11.20;4.27;;;12.50;53.10;;;;;;4155198;28;20100;-61
2021/03/29 08:40:27;;;;;;;13.37;5.80;;;12.30;54.30;;;;;;4154534;28;20150;-65
2021/03/29 08:42:32;;;;;;;9.50;5.93;;;12.10;55.00;;;;;;4154140;28;20045;-65
2021/03/29 08:44:37;;;;;;;11.47;6.70;;;12.00;55.90;;;;;;4143856;28;20536;-65
2021/03/29 08:46:40;;;;;;;12.33;7.10;;;11.70;56.30;;;;;;4157676;28;20083;-66
2021/03/29 08:48:45;;;;;;;13.43;6.00;;;11.60;56.90;;;;;;4154876;28;20179;-65
2021/03/29 08:50:48;;;;;;;11.83;6.27;;;11.60;56.90;;;;;;4156410;28;20469;-65
2021/03/29 08:52:58;;;;;;;15.03;6.63;;;11.60;56.80;;;;;;4150682;28;20033;-64
2021/03/29 08:54:59;;;;;;;9.70;3.20;;;11.70;56.60;;;;;;4141782;28;20049;-67
2021/03/29 08:57:03;;;;;;;3.83;2.70;;;11.90;53.70;;;;;;4145476;28;20038;-66
2021/03/29 08:59:04;;;;;;;4.77;2.80;;;12.00;53.10;;;;;;4156308;28;20060;-70
2021/03/29 09:01:05;;;;;;;7.53;3.10;;;12.20;53.00;;;;;;4153014;28;20029;-67
2021/03/29 09:03:20;;;;;;;11.97;2.80;;;12.60;52.80;;;;;;4159549;28;20437;-65
2021/03/29 09:05:23;;;;;;;8.27;3.17;;;13.00;52.40;;;;;;4160073;28;20041;-63
2021/03/29 09:07:37;;;;;;;8.53;2.20;;;13.20;51.50;;;;;;4159547;28;20091;-64
2021/03/29 09:09:38;;;;;;;4.10;2.60;;;12.80;50.10;;;;;;4153927;28;20501;-67
2021/03/29 09:11:41;;;;;;;6.10;2.37;;;12.30;50.50;;;;;;4156468;28;20061;-62
2021/03/29 09:13:42;;;;;;;7.67;2.37;;;12.20;50.70;;;;;;4156011;28;20103;-70
2021/03/29 09:15:48;;;;;;;3.63;1.87;;;11.90;50.90;;;;;;4148387;28;20528;-69
2021/03/29 09:17:58;;;;;;;5.67;3.13;;;11.80;51.10;;;;;;4145765;28;20625;-68
2021/03/29 09:20:01;;;;;;;9.55;2.50;;;11.80;51.60;;;;;;4142530;28;20429;-72
2021/03/29 09:22:04;;;;;;;7.53;2.30;;;12.00;51.60;;;;;;4168349;28;20045;-72
2021/03/29 09:24:27;;;;;;;7.50;2.53;;;12.20;51.60;;;;;;4158582;28;20103;-66
2021/03/29 09:26:28;;;;;;;10.23;3.53;;;12.50;51.00;;;;;;4159396;28;20029;-73
2021/03/29 09:28:34;;;;;;;5.23;2.47;;;12.70;51.30;;;;;;4157834;28;20096;-71
2021/03/29 09:30:35;;;;;;;4.63;2.37;;;12.60;51.30;;;;;;4158276;28;20465;-70
2021/03/29 09:32:39;;;;;;;4.87;1.90;;;12.40;50.90;;;;;;4157314;28;20491;-66
2021/03/29 09:34:45;;;;;;;5.90;3.07;;;12.30;51.30;;;;;;4154565;28;20095;-65
2021/03/29 09:36:46;;;;;;;8.87;4.70;;;12.10;50.70;;;;;;4141626;28;20033;-68
2021/03/29 09:38:52;;;;;;;10.47;5.40;;;12.10;51.30;;;;;;4148968;28;20037;-65
2021/03/29 09:40:53;;;;;;;11.60;3.83;;;12.30;51.60;;;;;;4157404;28;20076;-65
2021/03/29 09:42:55;;;;;;;3.57;2.20;;;12.50;51.50;;;;;;4157962;28;20436;-71
2021/03/29 09:44:59;;;;;;;7.33;2.87;;;12.40;50.90;;;;;;4157417;28;20452;-66
2021/03/29 09:47:01;;;;;;;5.63;2.53;;;12.40;50.80;;;;;;4158920;28;20038;-69
2021/03/29 09:49:05;;;;;;;5.60;2.60;;;12.40;50.90;;;;;;4142501;28;20359;-70
2021/03/29 09:51:20;;;;;;;6.40;2.60;;;12.50;50.80;;;;;;4142142;28;20099;-69
2021/03/29 09:53:23;;;;;;;9.30;3.47;;;12.30;49.30;;;;;;4150113;28;20522;-69
2021/03/29 09:55:43;;;;;;;6.87;2.40;;;12.20;50.40;;;;;;4148999;28;20140;-72
2021/03/29 09:57:44;;;;;;;19.42;2.80;;;11.90;49.90;;;;;;4140888;28;20045;-72
2021/03/29 09:59:46;;;;;;;8.57;2.43;;;11.80;50.50;;;;;;4151054;28;20033;-72
2021/03/29 10:01:47;;;;;;;6.13;1.97;;;11.80;50.60;;;;;;4160102;28;20037;-71
2021/03/29 10:03:52;;;;;;;5.20;2.13;;;11.70;50.70;;;;;;4173289;28;20600;-68
2021/03/29 10:05:54;;;;;;;13.90;3.03;;;11.70;51.10;;;;;;4172416;28;20053;-67
2021/03/29 10:07:56;;;;;;;7.03;2.20;;;11.90;51.20;;;;;;4173354;28;20441;-70
2021/03/29 10:10:05;;;;;;;5.57;1.90;;;11.70;50.00;;;;;;4147173;28;634824;-65
2021/03/29 10:12:07;;;;;;;9.40;3.07;;;11.50;50.40;;;;;;4157247;28;20092;-66
2021/03/29 10:14:08;;;;;;;5.73;3.43;;;11.30;50.70;;;;;;4159136;28;20037;-67
2021/03/29 10:16:16;;;;;;;12.50;1.93;;;11.30;51.40;;;;;;4167040;28;20546;-68
2021/03/29 10:18:17;;;;;;;7.10;3.37;;;11.30;51.10;;;;;;4175222;28;20103;-70
2021/03/29 10:20:18;;;;;;;5.60;2.30;;;11.40;51.50;;;;;;4174481;28;20529;-71
2021/03/29 10:22:23;;;;;;;7.33;2.80;;;11.50;51.40;;;;;;4175211;28;20094;-66
2021/03/29 10:24:24;;;;;;;10.40;3.13;;;11.60;51.10;;;;;;4173600;28;20099;-65
2021/03/29 10:26:32;;;;;;;7.53;3.40;;;11.80;51.20;;;;;;4173333;28;20041;-66
2021/03/29 10:28:33;;;;;;;6.60;2.90;;;11.80;50.90;;;;;;4155965;28;20037;-70
2021/03/29 10:30:37;;;;;;;6.27;2.37;;;12.00;51.20;;;;;;4147110;28;20053;-69
2021/03/29 10:32:39;;;;;;;7.63;2.73;;;12.00;51.00;;;;;;4156544;28;20051;-63
2021/03/29 10:34:42;;;;;;;8.50;2.63;;;12.10;50.80;;;;;;4158212;28;20945;-64
2021/03/29 10:36:43;;;;;;;3.93;2.47;;;12.20;50.60;;;;;;4157102;28;20037;-68
2021/03/29 10:38:45;;;;;;;9.00;2.40;;;12.30;50.60;;;;;;4158574;28;20026;-67
2021/03/29 10:40:46;;;;;;;7.57;2.30;;;12.30;50.30;;;;;;4157793;28;20017;-66
2021/03/29 10:42:48;;;;;;;5.03;2.03;;;12.00;50.20;;;;;;4144701;28;20421;-66